createdAt,value
2022-08-07T00:01:12.701Z,99548.00
2022-08-07T00:06:29.764Z,99549.34
2022-08-07T00:11:35.633Z,99541.75
2022-08-07T00:16:50.377Z,99552.38
2022-08-07T00:21:56.780Z,99551.00
2022-08-07T00:27:07.288Z,99546.94
2022-08-07T00:32:13.884Z,99541.25
2022-08-07T00:37:17.551Z,99546.63
2022-08-07T00:42:20.592Z,99545.56
2022-08-07T00:48:08.802Z,99536.22
2022-08-07T00:52:53.718Z,99529.25
2022-08-07T00:57:56.728Z,99531.47
2022-08-07T01:02:59.286Z,99532.00
2022-08-07T01:08:01.373Z,99536.34
2022-08-07T01:13:03.804Z,99536.66
2022-08-07T01:18:06.990Z,99536.09
2022-08-07T01:23:15.268Z,99535.53
2022-08-07T01:28:18.245Z,99530.09
2022-08-07T01:33:24.715Z,99519.50
2022-08-07T01:38:33.863Z,99534.16
2022-08-07T01:43:47.256Z,99526.00
2022-08-07T01:48:49.795Z,99536.31
2022-08-07T01:54:12.414Z,99536.56
2022-08-07T01:59:32.862Z,99535.78
2022-08-07T02:04:57.194Z,99529.78
2022-08-07T02:10:07.518Z,99513.22
2022-08-07T02:15:23.528Z,99526.81
2022-08-07T02:20:31.370Z,99517.28
2022-08-07T02:26:31.905Z,99521.34
2022-08-07T02:31:10.130Z,99524.88
2022-08-07T02:36:31.776Z,99517.00
2022-08-07T02:41:41.136Z,99515.66
2022-08-07T02:46:55.286Z,99521.63
2022-08-07T02:52:01.723Z,99527.63
2022-08-07T02:57:06.528Z,99524.34
2022-08-07T03:02:10.462Z,99522.47
2022-08-07T03:07:15.121Z,99531.41
2022-08-07T03:12:22.537Z,99524.09
2022-08-07T03:17:53.973Z,99521.66
2022-08-07T03:22:59.750Z,99518.13
2022-08-07T03:28:09.517Z,99527.34
2022-08-07T03:33:27.257Z,99523.56
2022-08-07T03:38:43.919Z,99513.81
2022-08-07T03:43:57.445Z,99517.66
2022-08-07T03:49:04.503Z,99522.25
2022-08-07T03:54:35.446Z,99521.97
2022-08-07T03:59:37.561Z,99518.97
2022-08-07T04:04:50.301Z,99512.44
2022-08-07T04:09:53.305Z,99512.97
2022-08-07T04:15:01.258Z,99528.41
2022-08-07T04:20:12.010Z,99510.44
2022-08-07T04:25:15.663Z,99529.13
2022-08-07T04:30:21.451Z,99527.44
2022-08-07T04:35:51.511Z,99530.38
2022-08-07T04:40:59.661Z,99518.84
2022-08-07T04:46:59.706Z,99528.44
2022-08-07T04:52:34.242Z,99531.47
2022-08-07T04:58:24.119Z,99528.22
2022-08-07T05:04:00.604Z,99535.78
2022-08-07T05:09:01.168Z,99527.25
2022-08-07T05:14:51.971Z,99522.91
2022-08-07T05:19:46.242Z,99519.31
2022-08-07T05:24:55.652Z,99521.94
2022-08-07T05:30:00.386Z,99520.84
2022-08-07T05:35:03.527Z,99515.00
2022-08-07T05:40:18.796Z,99516.88
2022-08-07T05:45:31.963Z,99528.78
2022-08-07T05:50:50.587Z,99529.53
2022-08-07T05:56:02.006Z,99533.41
2022-08-07T06:01:10.815Z,99525.38
2022-08-07T06:06:17.463Z,99527.94
2022-08-07T06:11:22.966Z,99528.41
2022-08-07T06:16:32.263Z,99534.69
2022-08-07T06:22:14.391Z,99530.97
2022-08-07T06:26:58.882Z,99538.75
2022-08-07T06:32:06.202Z,99532.31
2022-08-07T06:37:10.687Z,99533.88
2022-08-07T06:42:26.591Z,99537.25
2022-08-07T06:47:48.152Z,99540.88
2022-08-07T06:53:04.590Z,99535.91
2022-08-07T06:58:12.527Z,99531.50
2022-08-07T07:03:39.597Z,99538.59
2022-08-07T07:08:46.775Z,99538.00
2022-08-07T07:13:58.044Z,99540.66
2022-08-07T07:19:54.608Z,99542.47
2022-08-07T07:24:29.164Z,99554.44
2022-08-07T07:29:56.280Z,99564.56
2022-08-07T07:35:04.082Z,99569.53
2022-08-07T07:40:14.587Z,99573.88
2022-08-07T07:45:19.362Z,99550.59
2022-08-07T07:50:35.973Z,99536.25
2022-08-07T07:55:45.596Z,99539.38
2022-08-07T08:00:58.600Z,99534.25
2022-08-07T08:06:02.227Z,99533.56
2022-08-07T08:11:07.992Z,99545.69
2022-08-07T08:16:17.274Z,99545.91
2022-08-07T08:22:02.581Z,99543.13
2022-08-07T08:27:09.338Z,99545.56
2022-08-07T08:32:18.049Z,99539.44
2022-08-07T08:38:00.506Z,99522.97
2022-08-07T08:42:56.231Z,99519.81
2022-08-07T08:48:32.344Z,99510.34
2022-08-07T08:53:54.887Z,99501.81
2022-08-07T08:59:13.867Z,99505.69
2022-08-07T09:04:30.252Z,99511.44
2022-08-07T09:09:36.721Z,99503.16
2022-08-07T09:15:00.531Z,99515.03
2022-08-07T09:20:42.872Z,99500.75
2022-08-07T09:26:22.599Z,99498.75
2022-08-07T09:31:54.099Z,99479.44
2022-08-07T09:37:08.070Z,99478.91
2022-08-07T09:42:43.971Z,99466.19
2022-08-07T09:48:50.281Z,99469.72
2022-08-07T09:54:02.655Z,99458.50
2022-08-07T09:59:46.705Z,99460.94
2022-08-07T10:05:13.944Z,99442.72
2022-08-07T10:10:22.782Z,99462.88
2022-08-07T10:15:45.182Z,99433.75
2022-08-07T10:21:19.983Z,99438.97
2022-08-07T10:26:53.052Z,99449.56
2022-08-07T10:32:37.050Z,99451.91
2022-08-07T10:38:21.120Z,99443.00
2022-08-07T10:44:08.506Z,99450.63
2022-08-07T10:49:49.250Z,99431.75
2022-08-07T10:55:01.811Z,99417.13
2022-08-07T11:00:39.466Z,99410.56
2022-08-07T11:06:21.840Z,99420.69
2022-08-07T11:11:37.640Z,99415.94
2022-08-07T11:17:07.296Z,99420.38
2022-08-07T11:22:46.003Z,99417.81
2022-08-07T11:28:04.879Z,99430.88
2022-08-07T11:33:59.242Z,99455.22
2022-08-07T11:39:19.561Z,99480.28
2022-08-07T11:44:36.233Z,99515.63
2022-08-07T11:50:31.306Z,99511.34
2022-08-07T11:56:09.010Z,99519.53
2022-08-07T12:01:25.780Z,99519.09
2022-08-07T12:07:10.098Z,99506.31
2022-08-07T12:12:28.365Z,99521.03
2022-08-07T12:17:58.574Z,99512.22
2022-08-07T12:23:09.209Z,99522.84
2022-08-07T12:28:44.856Z,99531.47
2022-08-07T12:33:56.432Z,99544.34
2022-08-07T12:39:42.052Z,99554.06
2022-08-07T12:44:30.253Z,99546.25
2022-08-07T12:50:34.371Z,99574.91
2022-08-07T12:56:02.750Z,99582.97
2022-08-07T13:01:06.484Z,99580.13
2022-08-07T13:07:00.023Z,99589.72
2022-08-07T13:12:17.391Z,99594.13
2022-08-07T13:17:39.954Z,99596.78
2022-08-07T13:23:09.952Z,99600.44
2022-08-07T13:28:39.739Z,99589.34
2022-08-07T13:34:33.034Z,99607.28
2022-08-07T13:40:32.850Z,99595.28
2022-08-07T13:46:07.179Z,99597.66
2022-08-07T13:50:34.180Z,99597.53
2022-08-07T13:55:55.118Z,99596.19
2022-08-07T14:01:09.042Z,99580.28
2022-08-07T14:06:12.774Z,99586.59
2022-08-07T14:11:19.148Z,99585.44
2022-08-07T14:16:33.084Z,99592.19
2022-08-07T14:22:02.123Z,99573.19
2022-08-07T14:32:43.140Z,99574.63
2022-08-07T14:38:05.821Z,99563.34
2022-08-07T14:43:58.834Z,99551.13
2022-08-07T14:48:41.856Z,99558.50
2022-08-07T14:54:05.816Z,99561.56
2022-08-07T15:00:03.032Z,99566.47
2022-08-07T15:04:40.109Z,99580.97
2022-08-07T15:09:59.551Z,99569.31
2022-08-07T15:15:08.411Z,99583.28
2022-08-07T15:25:55.895Z,99592.31
2022-08-07T15:48:00.390Z,99606.50
2022-08-07T15:53:02.527Z,99605.50
2022-08-07T15:58:10.469Z,99618.34
2022-08-07T16:03:46.970Z,99623.88
2022-08-07T16:08:49.645Z,99613.66
2022-08-07T16:14:20.726Z,99612.59
2022-08-07T16:19:59.072Z,99612.03
2022-08-07T16:25:52.334Z,99620.47
2022-08-07T16:31:49.978Z,99630.16
2022-08-07T16:38:04.139Z,99642.13
2022-08-07T16:43:01.997Z,99645.50
2022-08-07T16:49:10.639Z,99647.94
2022-08-07T16:54:32.505Z,99653.69
2022-08-07T17:00:17.544Z,99658.78
2022-08-07T17:06:19.133Z,99662.91
2022-08-07T17:11:27.990Z,99656.91
2022-08-07T17:17:04.431Z,99669.41
2022-08-07T17:22:15.609Z,99669.38
2022-08-07T17:27:23.179Z,99677.78
2022-08-07T17:32:53.165Z,99683.72
2022-08-07T17:38:33.427Z,99688.03
2022-08-07T17:44:01.621Z,99701.25
2022-08-07T17:49:23.365Z,99695.00
2022-08-07T17:54:54.004Z,99701.19
2022-08-07T18:00:05.750Z,99706.06
2022-08-07T18:05:21.422Z,99693.47
2022-08-07T18:10:39.002Z,99699.22
2022-08-07T18:16:13.173Z,99695.41
2022-08-07T18:21:51.453Z,99698.38
2022-08-07T18:27:18.354Z,99705.69
2022-08-07T18:33:10.440Z,99701.91
2022-08-07T18:38:57.672Z,99711.97
2022-08-07T18:45:09.172Z,99729.78
2022-08-07T18:50:30.354Z,99719.03
2022-08-07T18:56:00.346Z,99737.09
2022-08-07T19:02:33.927Z,99736.84
2022-08-07T19:06:55.633Z,99735.13
2022-08-07T19:12:20.757Z,99725.19
2022-08-07T19:17:55.970Z,99739.75
2022-08-07T19:23:17.718Z,99736.78
2022-08-07T19:28:57.148Z,99745.69
2022-08-07T19:33:58.061Z,99739.94
2022-08-07T19:39:09.090Z,99743.22
2022-08-07T19:44:21.891Z,99734.53
2022-08-07T19:49:57.490Z,99745.03
2022-08-07T19:54:56.354Z,99744.50
2022-08-07T20:00:08.964Z,99744.81
2022-08-07T20:06:00.785Z,99736.22
2022-08-07T20:11:04.014Z,99737.19
2022-08-07T20:16:35.584Z,99744.19
2022-08-07T20:21:47.152Z,99753.19
2022-08-07T20:26:54.733Z,99757.50
2022-08-07T20:32:02.190Z,99748.53
2022-08-07T20:37:05.945Z,99745.28
2022-08-07T20:42:11.858Z,99748.00
2022-08-07T20:47:24.876Z,99755.03
2022-08-07T20:52:50.297Z,99749.22
2022-08-07T20:58:03.669Z,99742.09
2022-08-07T21:03:19.244Z,99718.41
2022-08-07T21:08:37.888Z,99732.22
2022-08-07T21:14:16.531Z,99738.00
2022-08-07T21:19:13.855Z,99746.22
2022-08-07T21:24:21.941Z,99758.91
2022-08-07T21:30:02.334Z,99744.09
2022-08-07T21:35:12.273Z,99742.72
2022-08-07T21:40:36.193Z,99746.06
2022-08-07T21:46:10.778Z,99744.44
2022-08-07T21:51:32.337Z,99742.25
2022-08-07T21:57:30.948Z,99745.97
2022-08-07T22:02:46.152Z,99765.22
2022-08-07T22:07:58.048Z,99760.91
2022-08-07T22:13:09.398Z,99761.31
2022-08-07T22:18:20.374Z,99756.66
2022-08-07T22:23:40.282Z,99748.63
2022-08-07T22:29:03.360Z,99757.81
2022-08-07T22:34:13.172Z,99765.25
2022-08-07T22:39:53.181Z,99769.72
2022-08-07T22:45:00.042Z,99775.41
2022-08-07T22:50:48.293Z,99774.06
2022-08-07T22:56:08.638Z,99776.47
2022-08-07T23:01:41.959Z,99782.13
2022-08-07T23:07:40.301Z,99774.63
2022-08-07T23:13:48.991Z,99779.06
2022-08-07T23:19:48.025Z,99766.91
2022-08-07T23:24:56.772Z,99786.41
2022-08-07T23:30:37.429Z,99788.53
2022-08-07T23:35:55.916Z,99793.03
2022-08-07T23:41:47.473Z,99790.94
2022-08-07T23:47:16.199Z,99801.19
2022-08-07T23:53:06.210Z,99794.22
2022-08-07T23:58:18.706Z,99793.66
